弊社発祥の地、埼玉は鶴ヶ島から!!

LUXURY FLIGHT

080-7560-1817

羽田空港本店: 所在地: 東京都大田区羽田空港3-3-2    セントレア店: 所在地: 愛知県常滑市セントレア1-1      HICityファイター店: 所在地: 東京都大田区羽田空港1-1-4
           第1旅客ターミナル5階                  FLIGHT OF DREAMS FLIGHT PARK                 HANEDA INNOVATION CITY ZONE-J 2-5
      営業時間: 10:00~20:00 定休日: 年中無休         営業時間: 10:00~20:00 定休日: 年中無休             営業時間: 10:00~20:00 定休日: 年中無休
      電話番号: 080-7560-1817                  電話番号: 080-4945-5666                     電話番号: 03-5579-7980

lv

弊社発祥の地、埼玉は鶴ヶ島から!!

STAFF BLOG

2019/08/13 弊社発祥の地、埼玉は鶴ヶ島から!!

こんにちはーー

 

今日は珍しく太陽が雲で隠れ、でも蒸し暑さがハンパない羽田周辺。

 

そんなMETARは…

RJTT 130000Z 11008KT 6000 -SHRA FEW006 SCT015 BKN035 28/26 Q1007

NOSIG RMK 1ST006 3CU015 7SC035 A2974

 

 

 

さてさて、本日はお盆真っ只中、乗換に乗換を重ね、

 

弊社発祥の地、埼玉の鶴ヶ島から

 

明るい仲良しご家族が遊びに来てくださいましたーーー

 

 

 

img_2628

 

以前は自転車で行ける距離だったのになぁぁぁーーーーーー

 

なんて、毎回来店される度にに言われてしまうのですが、どんだけご近所だったんだーー!!ってゆー話です。笑

 

 

着々と大人の表情になりつつある左席のお兄ちゃんが、いよいよパイロットに向けて将来をしっかり考えたい!!

ということでフライト内容も若干本格的に

 

私なんかが中学&高校生の時よりも、すごくシッカリしたものの考え方や、受け答えをするので

素直に「すごいなぁ」と感心しつつ…少々現実的で厳しい部分にも触れたお話をさせていただきました。

 

将来のこと、今のこと、クラスのこと、部活のこと…もう考え出したらキリがない!!

悩みは次から次へと出てきて、どれもすぐには答えなんか見つからないと思うけど、

ただひたすらに、素直に愚直に頑張って参りましょう!!

 

 

また成長した姿を見れることを楽しみにしています。

 

 

この度はご来店誠にありがとうございました。

またのご来店も心よりお待ち致しております。

 

 

 

「感謝」

TOP